Time;durP1;ratioP1;P1;durP2;ratioP2;P2;SDS_P1;SDS_P2;PMS_P1;PMS_P2;Temp;Humidity;BMP_temperature;BMP_pressure;BME280_temperature;BME280_humidity;BME280_pressure;Samples;Min_cycle;Max_cycle;Signal;HPM_P1;HPM_P2
2022/08/12 00:43:21;;;;;;;4.27;3.93;;;26.10;47.70;;;;;;5071393;28;20462;-62
2022/08/12 00:48:33;;;;;;;4.63;4.43;;;26.20;47.70;;;;;;5075481;28;20496;-62
2022/08/12 00:51:03;;;;;;;4.67;4.37;;;26.20;47.70;;;;;;5068945;28;20437;-63
2022/08/12 00:53:31;;;;;;;4.77;4.37;;;26.20;47.80;;;;;;5055345;28;20555;-62
2022/08/12 00:55:59;;;;;;;4.60;4.30;;;26.10;47.80;;;;;;5055454;28;20534;-62
2022/08/12 00:58:29;;;;;;;5.00;4.70;;;26.10;47.90;;;;;;5055115;28;20531;-62
2022/08/12 01:01:00;;;;;;;4.87;4.47;;;26.10;48.00;;;;;;5074281;28;20526;-62
2022/08/12 01:11:27;;;;;;;4.83;4.60;;;26.10;48.30;;;;;;5075138;28;20489;-62
2022/08/12 01:11:50;;;;;;;4.50;4.20;;;26.00;48.80;;;;;;5054954;28;20490;-63
2022/08/12 01:14:19;;;;;;;5.20;4.80;;;26.00;49.00;;;;;;5054922;28;20464;-61
2022/08/12 01:16:47;;;;;;;5.60;5.23;;;25.90;49.80;;;;;;5055858;28;20501;-62
2022/08/12 01:19:14;;;;;;;4.23;4.03;;;25.90;49.50;;;;;;5059156;28;20442;-61
2022/08/12 01:22:08;;;;;;;4.67;4.37;;;25.90;49.70;;;;;;5074801;28;20530;-62
2022/08/12 01:24:54;;;;;;;5.03;4.63;;;25.80;49.80;;;;;;5066098;28;20475;-62
2022/08/12 01:27:22;;;;;;;4.70;4.40;;;25.70;50.10;;;;;;5074792;28;20956;-62
2022/08/12 01:29:51;;;;;;;4.80;4.40;;;25.70;50.30;;;;;;5065144;28;20871;-61
2022/08/12 01:32:21;;;;;;;5.27;4.90;;;25.70;50.40;;;;;;5054407;28;20475;-62
2022/08/12 01:34:57;;;;;;;4.50;4.17;;;25.60;50.30;;;;;;5054628;28;21033;-62
2022/08/12 01:37:26;;;;;;;4.90;4.50;;;25.60;50.40;;;;;;5054675;28;20468;-60
2022/08/12 01:39:57;;;;;;;5.27;4.87;;;25.70;50.40;;;;;;5063525;28;20447;-60
2022/08/12 01:42:27;;;;;;;4.77;4.30;;;25.60;50.50;;;;;;5074306;28;20443;-62
2022/08/12 01:44:55;;;;;;;4.87;4.53;;;25.70;50.70;;;;;;5074414;28;20449;-62
2022/08/12 01:47:38;;;;;;;4.67;4.13;;;25.60;50.70;;;;;;5074510;28;20525;-62
2022/08/12 01:50:17;;;;;;;4.93;4.63;;;25.60;50.80;;;;;;5063147;28;20458;-59
2022/08/12 01:52:56;;;;;;;4.83;4.53;;;25.50;51.00;;;;;;5054115;28;20510;-63
2022/08/12 01:55:27;;;;;;;4.93;4.63;;;25.50;51.20;;;;;;5054263;28;20454;-59
2022/08/12 01:58:05;;;;;;;4.60;4.30;;;25.50;51.30;;;;;;5053707;28;20957;-61
2022/08/12 02:00:43;;;;;;;4.37;4.07;;;25.50;51.30;;;;;;5067983;28;20542;-60
2022/08/12 02:03:22;;;;;;;4.90;4.43;;;25.50;51.30;;;;;;5074127;28;20823;-62
2022/08/12 02:11:35;;;;;;;5.07;4.77;;;25.40;51.20;;;;;;5053861;28;20524;-62
2022/08/12 02:14:18;;;;;;;4.57;4.20;;;25.40;51.30;;;;;;5053787;28;20551;-62
2022/08/12 02:17:04;;;;;;;4.50;4.30;;;25.40;51.40;;;;;;5053794;28;20535;-61
2022/08/12 02:19:56;;;;;;;4.87;4.57;;;25.40;51.50;;;;;;5053641;28;20441;-60
2022/08/12 02:22:28;;;;;;;4.70;4.50;;;25.30;51.50;;;;;;5048326;28;21006;-61
2022/08/12 02:25:03;;;;;;;4.70;4.30;;;25.30;51.60;;;;;;5064297;28;20879;-61
2022/08/12 02:27:38;;;;;;;5.40;5.00;;;25.30;51.60;;;;;;5053875;28;20531;-61
2022/08/12 02:30:07;;;;;;;4.83;4.63;;;25.30;52.00;;;;;;5053574;28;20864;-62
2022/08/12 02:32:38;;;;;;;4.93;4.50;;;25.30;52.50;;;;;;5053400;28;20484;-60
2022/08/12 02:35:08;;;;;;;4.90;4.50;;;25.30;52.70;;;;;;5053517;28;20498;-62
2022/08/12 02:37:36;;;;;;;4.70;4.33;;;25.30;52.10;;;;;;5053538;28;20476;-62
2022/08/12 02:40:05;;;;;;;4.53;4.23;;;25.20;52.10;;;;;;5068433;28;21023;-62
2022/08/12 02:42:35;;;;;;;4.50;4.20;;;25.20;52.20;;;;;;5073125;28;20537;-60
2022/08/12 02:45:06;;;;;;;5.07;4.77;;;25.20;52.10;;;;;;5073125;28;20478;-62
2022/08/12 02:47:38;;;;;;;4.60;4.30;;;25.20;51.90;;;;;;5073252;28;20440;-63
2022/08/12 02:50:06;;;;;;;5.30;4.90;;;25.20;51.80;;;;;;5057316;28;20527;-60
2022/08/12 02:52:34;;;;;;;4.70;4.40;;;25.20;51.80;;;;;;5052939;28;20487;-62
2022/08/12 02:55:12;;;;;;;5.20;4.90;;;25.20;51.80;;;;;;5052991;28;20928;-61
2022/08/12 02:57:43;;;;;;;4.80;4.50;;;25.20;52.30;;;;;;5052920;28;20447;-59
2022/08/12 03:00:12;;;;;;;4.73;4.50;;;25.20;52.50;;;;;;5070806;28;20530;-61
2022/08/12 03:02:43;;;;;;;4.70;4.30;;;25.10;52.20;;;;;;5072662;28;20542;-62
2022/08/12 03:05:13;;;;;;;5.07;4.77;;;25.00;52.30;;;;;;5072812;28;20484;-61
2022/08/12 03:07:45;;;;;;;4.73;4.33;;;25.00;52.50;;;;;;5071976;28;20454;-60
2022/08/12 03:10:13;;;;;;;5.43;5.13;;;25.00;52.50;;;;;;5053607;28;20480;-61
2022/08/12 03:12:43;;;;;;;4.40;4.10;;;24.90;52.50;;;;;;5052427;28;20520;-62
2022/08/12 03:15:15;;;;;;;4.70;4.50;;;24.90;52.70;;;;;;5052737;28;20854;-62
2022/08/12 03:17:50;;;;;;;5.27;4.77;;;24.90;52.80;;;;;;5063881;28;20541;-62
2022/08/12 03:20:21;;;;;;;5.33;4.83;;;24.80;52.90;;;;;;5072789;28;20548;-61
2022/08/12 03:22:50;;;;;;;5.20;4.80;;;24.80;53.10;;;;;;5072451;28;20462;-62
2022/08/12 03:25:20;;;;;;;5.23;4.93;;;24.80;53.10;;;;;;5072437;28;20542;-61
2022/08/12 03:27:54;;;;;;;5.63;5.30;;;24.80;53.30;;;;;;5060027;28;20940;-60
2022/08/12 03:30:23;;;;;;;5.13;4.77;;;24.80;53.50;;;;;;5052079;28;20823;-61
2022/08/12 03:32:52;;;;;;;4.83;4.53;;;24.80;53.60;;;;;;5052061;28;20488;-62
2022/08/12 03:35:25;;;;;;;5.13;4.73;;;24.80;53.60;;;;;;5052340;28;20505;-63
2022/08/12 03:37:55;;;;;;;5.30;4.90;;;24.80;53.70;;;;;;5064184;28;20439;-62
2022/08/12 04:02:27;;;;;;;4.80;4.50;;;24.60;55.00;;;;;;5071673;28;20566;-59
2022/08/12 04:04:55;;;;;;;6.37;5.90;;;24.60;55.00;;;;;;5071877;28;21021;-63
2022/08/12 04:07:22;;;;;;;5.77;5.27;;;24.60;55.10;;;;;;5064333;28;20472;-61
2022/08/12 04:09:50;;;;;;;5.87;5.57;;;24.60;55.20;;;;;;5051604;28;20444;-62
2022/08/12 04:15:19;;;;;;;11.60;5.50;;;24.70;55.00;;;;;;5009723;28;20426;-61
2022/08/12 04:17:47;;;;;;;5.07;4.57;;;24.60;54.90;;;;;;5020157;28;21082;-61
2022/08/12 04:20:18;;;;;;;5.93;5.53;;;24.60;55.00;;;;;;5048293;28;21005;-61
2022/08/12 04:22:45;;;;;;;5.33;5.03;;;24.60;55.00;;;;;;5071605;28;20472;-63
2022/08/12 04:25:13;;;;;;;6.23;5.80;;;24.60;55.40;;;;;;5070607;28;20439;-61
2022/08/12 04:27:43;;;;;;;5.63;5.13;;;24.60;55.70;;;;;;5071301;28;20440;-63
2022/08/12 04:30:11;;;;;;;5.70;5.40;;;24.50;55.50;;;;;;5071355;28;20522;-62
2022/08/12 04:32:40;;;;;;;8.00;5.10;;;24.50;55.40;;;;;;5071389;28;20575;-61
2022/08/12 04:35:07;;;;;;;6.27;5.77;;;24.40;55.60;;;;;;5069248;28;20919;-59
2022/08/12 04:37:34;;;;;;;6.37;5.83;;;24.40;55.80;;;;;;5051644;28;20528;-62
2022/08/12 04:40:04;;;;;;;5.10;4.70;;;24.40;56.00;;;;;;5070500;28;20985;-63
2022/08/12 04:42:31;;;;;;;5.20;4.90;;;24.50;56.30;;;;;;5071341;28;20526;-62
2022/08/12 04:44:58;;;;;;;5.07;4.77;;;24.40;56.20;;;;;;5113191;22;20482;-62
2022/08/12 04:47:25;;;;;;;15.67;7.03;;;24.40;56.40;;;;;;5095619;28;20522;-61
2022/08/12 04:49:54;;;;;;;5.70;5.00;;;24.40;56.50;;;;;;5111693;28;20480;-62
2022/08/12 04:52:21;;;;;;;5.77;5.47;;;24.30;56.50;;;;;;5111724;28;21042;-62
2022/08/12 04:54:48;;;;;;;4.97;4.57;;;24.30;56.50;;;;;;5111819;28;20496;-62
2022/08/12 04:57:15;;;;;;;5.40;5.00;;;24.30;56.30;;;;;;5111767;28;20533;-61
2022/08/12 04:59:42;;;;;;;5.20;4.57;;;24.30;56.10;;;;;;5103188;28;20937;-62
2022/08/12 05:02:09;;;;;;;6.00;5.03;;;24.40;55.70;;;;;;5091480;28;20850;-63
2022/08/12 05:04:37;;;;;;;6.07;5.50;;;24.30;55.20;;;;;;5091409;28;20869;-62
2022/08/12 05:07:07;;;;;;;6.13;5.30;;;24.40;55.50;;;;;;5091516;28;20474;-63
2022/08/12 05:09:34;;;;;;;5.27;4.87;;;24.40;55.60;;;;;;5096004;28;20827;-62
2022/08/12 05:12:02;;;;;;;4.90;4.57;;;24.50;55.50;;;;;;5101270;28;20469;-59
2022/08/12 05:14:29;;;;;;;6.23;5.60;;;24.50;55.40;;;;;;5098549;28;20548;-62
2022/08/12 05:16:56;;;;;;;5.13;4.83;;;24.50;55.70;;;;;;5111672;28;20529;-61
2022/08/12 05:19:24;;;;;;;4.53;4.23;;;24.60;55.20;;;;;;5109921;28;20458;-59
2022/08/12 05:21:51;;;;;;;4.00;3.70;;;24.60;55.10;;;;;;5091393;28;20442;-58
2022/08/12 05:24:19;;;;;;;4.57;4.27;;;24.60;54.40;;;;;;5091089;28;20556;-59
2022/08/12 05:26:46;;;;;;;5.40;5.10;;;24.60;54.50;;;;;;5091185;28;20450;-58
2022/08/12 05:29:15;;;;;;;5.93;4.47;;;24.60;54.40;;;;;;5091014;28;20798;-59
2022/08/12 05:31:42;;;;;;;5.13;4.73;;;24.60;53.90;;;;;;5092300;28;20442;-57
2022/08/12 05:34:10;;;;;;;9.83;4.83;;;24.60;53.80;;;;;;5094610;28;20521;-61
2022/08/12 05:36:37;;;;;;;4.93;4.53;;;24.60;54.50;;;;;;5094991;28;20489;-57
2022/08/12 05:39:04;;;;;;;4.40;4.10;;;24.70;54.20;;;;;;5094601;28;20478;-59
2022/08/12 05:41:34;;;;;;;5.70;4.23;;;24.60;53.80;;;;;;5108102;28;20477;-53
2022/08/12 05:44:03;;;;;;;4.97;4.57;;;24.70;53.90;;;;;;5096413;28;20533;-60
2022/08/12 05:46:31;;;;;;;5.73;5.17;;;24.70;54.10;;;;;;5105970;28;20498;-57
2022/08/12 05:49:00;;;;;;;7.20;6.50;;;24.70;54.20;;;;;;5114409;28;20441;-59
2022/08/12 05:51:29;;;;;;;10.23;6.17;;;24.80;54.90;;;;;;5112626;28;20477;-56
2022/08/12 05:53:57;;;;;;;6.27;5.67;;;24.90;57.20;;;;;;5098535;28;20992;-60
2022/08/12 05:56:26;;;;;;;10.77;5.00;;;24.90;58.60;;;;;;5104189;28;20457;-58
2022/08/12 05:58:55;;;;;;;7.30;6.20;;;25.00;58.20;;;;;;5094254;28;20457;-61
2022/08/12 06:01:24;;;;;;;5.80;5.30;;;25.10;58.20;;;;;;5094316;28;20456;-59
2022/08/12 06:03:51;;;;;;;5.40;4.90;;;25.10;57.90;;;;;;5094307;28;20894;-60
2022/08/12 06:06:18;;;;;;;5.60;5.07;;;25.10;57.10;;;;;;5096500;28;20454;-60
2022/08/12 06:08:47;;;;;;;4.67;4.37;;;25.20;57.00;;;;;;5114013;28;20484;-59
2022/08/12 06:11:16;;;;;;;6.87;5.37;;;25.20;56.50;;;;;;5114362;28;20457;-59
2022/08/12 06:13:44;;;;;;;4.57;4.27;;;25.20;56.10;;;;;;5099733;28;20489;-58
2022/08/12 06:16:16;;;;;;;5.57;4.37;;;25.30;55.50;;;;;;5094176;28;20855;-53
2022/08/12 06:18:44;;;;;;;4.90;4.50;;;25.30;55.60;;;;;;5076940;28;20546;-57
2022/08/12 06:21:14;;;;;;;5.47;5.07;;;25.40;55.40;;;;;;5100264;28;20469;-58
2022/08/12 06:23:42;;;;;;;7.70;4.67;;;25.40;55.10;;;;;;5112587;28;20461;-59
2022/08/12 06:26:11;;;;;;;4.67;4.33;;;25.40;54.60;;;;;;5114138;28;20875;-58
2022/08/12 06:28:38;;;;;;;4.43;4.23;;;25.50;53.70;;;;;;5093822;28;20446;-56
2022/08/12 06:31:06;;;;;;;4.30;4.00;;;25.50;54.00;;;;;;5100363;28;21032;-54
2022/08/12 06:33:35;;;;;;;4.87;4.57;;;25.50;53.90;;;;;;5113665;28;20481;-57
2022/08/12 06:36:02;;;;;;;5.63;4.67;;;25.50;54.10;;;;;;5102524;28;20478;-53
2022/08/12 06:38:31;;;;;;;5.43;5.03;;;25.60;53.80;;;;;;5107285;28;20449;-57
2022/08/12 06:43:50;;;;;;;5.20;4.70;;;25.60;52.50;;;;;;5094296;28;21038;-53
2022/08/12 06:46:18;;;;;;;4.20;3.90;;;25.70;52.80;;;;;;5107838;28;20449;-57
2022/08/12 06:48:46;;;;;;;4.23;3.93;;;25.70;52.20;;;;;;5113321;28;20445;-51
2022/08/12 06:51:14;;;;;;;4.20;4.00;;;25.80;52.20;;;;;;5109693;28;20462;-56
2022/08/12 06:53:42;;;;;;;3.70;3.50;;;25.70;51.30;;;;;;5095436;28;20495;-55
2022/08/12 06:56:09;;;;;;;6.33;5.30;;;25.70;51.30;;;;;;5107532;28;20496;-55
2022/08/12 06:58:38;;;;;;;4.43;3.90;;;25.80;51.70;;;;;;5093284;28;20988;-56
2022/08/12 07:01:06;;;;;;;3.63;3.43;;;25.80;52.40;;;;;;5113179;28;20567;-56
2022/08/12 07:03:33;;;;;;;3.80;3.53;;;25.90;52.70;;;;;;5113193;28;20493;-53
2022/08/12 07:06:05;;;;;;;4.53;4.33;;;25.90;52.20;;;;;;5104199;28;20513;-56
2022/08/12 07:08:34;;;;;;;5.47;4.37;;;25.90;51.80;;;;;;5092916;28;20518;-58
2022/08/12 07:11:03;;;;;;;4.67;4.27;;;25.90;51.90;;;;;;5092915;28;20534;-56
2022/08/12 07:13:37;;;;;;;4.63;4.23;;;25.90;52.60;;;;;;5092769;28;20494;-53
2022/08/12 07:16:05;;;;;;;3.93;3.63;;;26.00;53.40;;;;;;5099243;28;20789;-54
2022/08/12 07:18:33;;;;;;;4.20;3.90;;;26.10;54.60;;;;;;5113055;28;20445;-55
2022/08/12 07:21:02;;;;;;;3.80;3.50;;;26.10;55.50;;;;;;5111335;28;20472;-56
2022/08/12 07:23:32;;;;;;;4.20;3.90;;;26.10;56.10;;;;;;5073115;28;20517;-54
2022/08/12 07:26:00;;;;;;;4.63;4.30;;;26.10;56.00;;;;;;5097515;28;20474;-57
2022/08/12 07:28:32;;;;;;;4.03;3.83;;;26.10;55.80;;;;;;5112654;28;20450;-56
2022/08/12 07:30:59;;;;;;;3.90;3.70;;;26.10;55.50;;;;;;5099721;28;20452;-57
2022/08/12 07:33:29;;;;;;;3.50;3.30;;;26.10;54.20;;;;;;5107169;28;21010;-53
2022/08/12 07:35:58;;;;;;;4.00;3.80;;;26.20;53.40;;;;;;5101103;28;20461;-57
2022/08/12 07:38:29;;;;;;;4.13;3.83;;;26.20;52.80;;;;;;5112404;28;20438;-56
2022/08/12 07:41:00;;;;;;;3.27;3.07;;;26.20;52.50;;;;;;5107630;28;20500;-57
2022/08/12 07:43:29;;;;;;;4.90;4.60;;;26.20;52.30;;;;;;5092217;28;20474;-56
2022/08/12 07:45:57;;;;;;;3.37;3.17;;;26.20;53.50;;;;;;5092340;28;20447;-58
2022/08/12 07:48:24;;;;;;;4.00;3.80;;;26.20;55.00;;;;;;5096302;28;20448;-57
2022/08/12 07:50:52;;;;;;;6.00;4.00;;;26.30;55.70;;;;;;5112678;28;20673;-53
2022/08/12 07:53:20;;;;;;;7.07;4.00;;;26.30;55.80;;;;;;5111945;28;20485;-57
2022/08/12 07:55:49;;;;;;;3.50;3.30;;;26.30;56.50;;;;;;5112534;28;20477;-55
2022/08/12 07:58:16;;;;;;;4.40;4.00;;;26.30;56.30;;;;;;5112867;28;20864;-57
2022/08/12 08:00:43;;;;;;;3.30;3.00;;;26.30;56.00;;;;;;5105125;28;20450;-51
2022/08/12 08:03:12;;;;;;;3.50;3.30;;;26.30;55.30;;;;;;5105513;28;20992;-54
2022/08/12 08:05:40;;;;;;;2.95;2.85;;;26.30;55.60;;;;;;5112278;28;20825;-59
2022/08/12 08:08:15;;;;;;;2.83;2.73;;;26.40;55.30;;;;;;5112536;28;20226;-56
2022/08/12 08:10:42;;;;;;;3.33;3.13;;;26.40;54.80;;;;;;5092097;28;20525;-54
2022/08/12 08:13:11;;;;;;;3.60;3.50;;;26.40;54.80;;;;;;5092059;28;20453;-57
2022/08/12 08:15:39;;;;;;;2.80;2.70;;;26.40;55.20;;;;;;5110920;28;20835;-56
2022/08/12 08:18:07;;;;;;;3.37;3.20;;;26.40;54.70;;;;;;5092241;28;20889;-53
2022/08/12 08:20:36;;;;;;;3.97;3.67;;;26.40;54.20;;;;;;5107856;28;20971;-56
2022/08/12 08:23:06;;;;;;;2.83;2.70;;;26.50;54.30;;;;;;5097474;28;20512;-55
2022/08/12 08:25:37;;;;;;;3.23;3.13;;;26.50;53.90;;;;;;5111828;28;20491;-53
2022/08/12 08:28:07;;;;;;;2.80;2.70;;;26.50;54.20;;;;;;5111829;28;20475;-53
2022/08/12 08:30:38;;;;;;;2.50;2.40;;;26.50;53.60;;;;;;5098367;28;20441;-51
2022/08/12 08:33:09;;;;;;;2.83;2.63;;;26.50;53.50;;;;;;5110330;28;20452;-51
2022/08/12 08:35:37;;;;;;;2.70;2.60;;;26.50;53.00;;;;;;5093868;28;20891;-55
2022/08/12 08:38:10;;;;;;;3.27;3.07;;;26.50;52.90;;;;;;5103004;28;20470;-56
2022/08/12 08:43:24;;;;;;;2.87;2.73;;;26.50;52.60;;;;;;5091478;28;20815;-55
2022/08/12 08:45:52;;;;;;;2.53;2.43;;;26.60;52.60;;;;;;5096423;28;20485;-54
2022/08/12 08:48:21;;;;;;;2.77;2.67;;;26.60;52.80;;;;;;5091509;28;20529;-55
2022/08/12 08:50:48;;;;;;;2.60;2.50;;;26.60;52.90;;;;;;5105919;28;20445;-55
2022/08/12 08:53:15;;;;;;;2.33;2.23;;;26.60;52.50;;;;;;5111493;28;20980;-59
2022/08/12 08:55:42;;;;;;;2.40;2.30;;;26.60;52.40;;;;;;5111592;28;20467;-51
2022/08/12 08:58:11;;;;;;;2.00;2.00;;;26.60;52.70;;;;;;5111487;28;20468;-54
2022/08/12 09:00:39;;;;;;;2.80;2.60;;;26.60;52.90;;;;;;5075272;28;20443;-55
2022/08/12 09:03:08;;;;;;;2.30;2.20;;;26.60;52.90;;;;;;5091221;28;20451;-57
2022/08/12 09:05:36;;;;;;;2.30;2.13;;;26.70;52.60;;;;;;5092571;28;20482;-58
2022/08/12 09:08:06;;;;;;;2.57;2.37;;;26.70;52.50;;;;;;5095528;28;20945;-57
2022/08/12 09:10:33;;;;;;;3.17;2.97;;;26.70;52.20;;;;;;5078637;28;20775;-57
2022/08/12 09:15:47;;;;;;;3.37;3.17;;;26.70;51.40;;;;;;5112941;28;20547;-58
2022/08/12 09:18:17;;;;;;;2.50;2.40;;;26.70;51.60;;;;;;5115638;28;20516;-58
2022/08/12 09:20:49;;;;;;;2.93;2.83;;;26.70;51.60;;;;;;5111834;28;20438;-56
2022/08/12 09:23:17;;;;;;;2.87;2.67;;;26.70;51.50;;;;;;5102184;28;20457;-56
2022/08/12 09:25:47;;;;;;;2.50;2.40;;;26.80;51.30;;;;;;5115203;28;20449;-57
2022/08/12 09:28:14;;;;;;;2.30;2.20;;;26.80;51.30;;;;;;5099499;28;20445;-56
2022/08/12 09:30:45;;;;;;;2.27;2.17;;;26.80;51.30;;;;;;5094932;28;20887;-54
2022/08/12 09:33:12;;;;;;;2.50;2.40;;;26.80;51.20;;;;;;5094813;28;20684;-58
2022/08/12 09:35:42;;;;;;;2.40;2.30;;;26.80;51.20;;;;;;5113906;28;20477;-56
2022/08/12 09:38:16;;;;;;;2.60;2.50;;;26.80;51.00;;;;;;5115298;28;20932;-58
2022/08/12 09:40:43;;;;;;;2.03;1.93;;;26.80;50.90;;;;;;5113543;28;20451;-58
2022/08/12 09:45:56;;;;;;;2.67;2.50;;;26.90;50.80;;;;;;5098741;28;20441;-58
2022/08/12 09:48:23;;;;;;;2.60;2.40;;;26.90;50.70;;;;;;5094424;28;20446;-61
2022/08/12 09:50:52;;;;;;;3.97;2.33;;;26.90;50.60;;;;;;5094708;28;20823;-54
2022/08/12 09:53:23;;;;;;;2.20;2.10;;;26.90;50.90;;;;;;5094437;28;20498;-55
2022/08/12 09:55:52;;;;;;;2.13;2.03;;;26.90;50.50;;;;;;5086225;28;20450;-57
2022/08/12 09:58:24;;;;;;;2.10;2.00;;;26.90;50.70;;;;;;5094460;28;20507;-56
2022/08/12 10:00:53;;;;;;;2.50;2.40;;;26.90;50.70;;;;;;5094396;28;20453;-57
2022/08/12 10:03:24;;;;;;;2.30;2.20;;;26.90;50.50;;;;;;5094247;28;20470;-57
2022/08/12 10:05:53;;;;;;;2.70;2.60;;;26.90;50.50;;;;;;5074264;28;20443;-55
2022/08/12 10:08:22;;;;;;;2.13;2.03;;;26.90;50.20;;;;;;5090377;28;20826;-57
2022/08/12 10:13:43;;;;;;;2.30;2.20;;;27.00;50.50;;;;;;5104352;28;20457;-52
2022/08/12 10:16:12;;;;;;;2.27;2.17;;;27.00;50.00;;;;;;5109232;28;20799;-54
2022/08/12 10:18:40;;;;;;;2.20;2.10;;;27.00;49.80;;;;;;5113046;28;20980;-57
2022/08/12 10:21:13;;;;;;;2.67;2.47;;;27.00;49.20;;;;;;5114368;28;20441;-57
2022/08/12 10:23:42;;;;;;;2.57;2.47;;;27.00;49.70;;;;;;5109569;28;20457;-57
2022/08/12 10:31:39;;;;;;;2.30;2.20;;;27.10;49.40;;;;;;5093997;28;20472;-55
2022/08/12 10:34:08;;;;;;;2.57;2.37;;;27.10;49.90;;;;;;5093582;28;20655;-52
2022/08/12 10:36:38;;;;;;;2.70;2.50;;;27.10;50.20;;;;;;5093680;28;20446;-52
2022/08/12 10:39:05;;;;;;;2.40;2.20;;;27.10;50.00;;;;;;5110628;28;20532;-54
2022/08/12 10:44:17;;;;;;;2.43;2.07;;;27.10;50.50;;;;;;5129029;22;21041;-48
2022/08/12 10:46:44;;;;;;;4.50;2.70;;;27.10;51.40;;;;;;5073975;28;20458;-56
2022/08/12 10:49:12;;;;;;;2.33;2.22;;;27.10;52.00;;;;;;5079831;28;20445;-54
2022/08/12 10:51:41;;;;;;;2.40;2.20;;;27.10;51.90;;;;;;5093887;28;20232;-51
2022/08/12 10:54:10;;;;;;;2.80;2.40;;;27.20;52.80;;;;;;5093658;28;20871;-49
2022/08/12 10:56:39;;;;;;;2.23;2.13;;;27.30;54.00;;;;;;5093288;28;21031;-49
2022/08/12 10:59:06;;;;;;;2.93;2.73;;;27.30;54.50;;;;;;5092875;28;20461;-50
2022/08/12 11:01:34;;;;;;;2.60;2.40;;;27.30;55.20;;;;;;5092920;28;20485;-49
2022/08/12 11:04:03;;;;;;;2.30;2.20;;;27.30;54.50;;;;;;5080635;28;20467;-48
2022/08/12 11:06:30;;;;;;;2.10;2.00;;;27.20;53.10;;;;;;5073241;28;20499;-47
2022/08/12 11:08:59;;;;;;;2.60;2.40;;;27.20;53.30;;;;;;5073078;28;20439;-54
2022/08/12 11:11:26;;;;;;;2.40;2.30;;;27.30;53.80;;;;;;5072980;28;20447;-49
2022/08/12 11:13:53;;;;;;;2.53;2.43;;;27.30;52.60;;;;;;5078908;28;20824;-49
2022/08/12 11:16:21;;;;;;;3.63;2.60;;;27.30;51.70;;;;;;5092982;28;20446;-49
2022/08/12 11:18:48;;;;;;;2.40;2.23;;;27.30;51.90;;;;;;5078878;28;20560;-48
2022/08/12 11:21:15;;;;;;;2.13;2.03;;;27.30;52.10;;;;;;5084038;28;20536;-50
2022/08/12 11:23:42;;;;;;;1.83;1.73;;;27.30;52.30;;;;;;5084500;28;20224;-50
2022/08/12 11:26:10;;;;;;;2.60;2.50;;;27.40;51.30;;;;;;5076892;28;20439;-48
2022/08/12 11:28:37;;;;;;;2.60;2.50;;;27.40;50.90;;;;;;5072106;28;20887;-52
2022/08/12 11:31:06;;;;;;;2.40;2.23;;;27.40;50.70;;;;;;5074704;28;20450;-52
2022/08/12 11:33:33;;;;;;;2.17;2.07;;;27.50;50.50;;;;;;5090356;28;20528;-50
2022/08/12 11:36:08;;;;;;;3.23;3.03;;;27.40;50.30;;;;;;5072823;28;20570;-52
2022/08/12 11:38:36;;;;;;;2.17;2.07;;;27.40;51.20;;;;;;5072443;28;20534;-48
2022/08/12 11:41:04;;;;;;;3.63;2.70;;;27.40;51.10;;;;;;5085472;28;20442;-50
2022/08/12 11:43:33;;;;;;;7.23;2.63;;;27.40;50.30;;;;;;5082976;28;20451;-48
2022/08/12 11:46:00;;;;;;;2.73;2.53;;;27.40;50.90;;;;;;5081355;28;20523;-51
2022/08/12 11:48:27;;;;;;;2.67;2.47;;;27.40;50.80;;;;;;5092118;28;20485;-51
2022/08/12 11:50:54;;;;;;;2.77;2.57;;;27.40;51.00;;;;;;5087031;28;20518;-49
2022/08/12 11:53:21;;;;;;;2.37;2.27;;;27.40;50.60;;;;;;5071981;28;20538;-49
2022/08/12 11:55:48;;;;;;;1.90;1.80;;;27.40;50.50;;;;;;5071901;28;20565;-52
2022/08/12 11:58:14;;;;;;;2.83;2.07;;;27.40;50.40;;;;;;5072176;28;20475;-51
2022/08/12 12:00:43;;;;;;;2.20;2.10;;;27.40;50.50;;;;;;5079196;28;20470;-50
2022/08/12 12:03:09;;;;;;;3.83;2.30;;;27.50;50.60;;;;;;5092274;28;20522;-55
2022/08/12 12:05:36;;;;;;;3.10;2.80;;;27.50;51.00;;;;;;5091774;28;20541;-54
2022/08/12 12:08:04;;;;;;;2.10;2.00;;;27.50;50.30;;;;;;5091952;28;20471;-54
2022/08/12 12:10:31;;;;;;;3.83;2.40;;;27.50;50.10;;;;;;5072918;28;20454;-55
2022/08/12 12:12:58;;;;;;;2.73;2.63;;;27.50;50.30;;;;;;5072806;28;20903;-56
2022/08/12 12:15:25;;;;;;;4.50;2.60;;;27.60;50.50;;;;;;5072716;28;20818;-54
2022/08/12 12:17:53;;;;;;;4.17;3.23;;;27.60;50.30;;;;;;5071998;28;20868;-53
2022/08/12 12:20:20;;;;;;;2.50;2.30;;;27.60;50.70;;;;;;5072553;28;20447;-52
2022/08/12 12:22:46;;;;;;;3.57;2.77;;;27.60;50.80;;;;;;5071519;28;20482;-53
2022/08/12 12:25:13;;;;;;;2.97;2.20;;;27.60;50.90;;;;;;5071553;28;20605;-54
2022/08/12 12:27:48;;;;;;;3.13;2.93;;;27.60;50.90;;;;;;5071527;28;20482;-49
2022/08/12 12:30:16;;;;;;;3.20;2.17;;;27.60;50.90;;;;;;5071326;28;20501;-52
2022/08/12 12:32:43;;;;;;;3.23;2.57;;;27.60;50.90;;;;;;5071577;28;20447;-51
2022/08/12 12:35:12;;;;;;;11.40;4.23;;;27.60;50.90;;;;;;5071329;28;20853;-48
2022/08/12 12:37:55;;;;;;;5.23;2.37;;;27.60;50.80;;;;;;5071658;28;20478;-49
2022/08/12 12:40:22;;;;;;;3.13;2.43;;;27.60;50.70;;;;;;5071070;28;21047;-54
2022/08/12 12:42:49;;;;;;;2.80;2.53;;;27.60;50.70;;;;;;5071643;28;20952;-50
2022/08/12 12:45:16;;;;;;;3.17;2.93;;;27.60;50.60;;;;;;5071403;28;20506;-53
2022/08/12 12:47:57;;;;;;;2.03;1.83;;;27.70;50.60;;;;;;5071453;28;20949;-51
2022/08/12 12:50:26;;;;;;;2.40;2.20;;;27.70;50.50;;;;;;5071198;28;20439;-55
2022/08/12 12:52:53;;;;;;;2.53;2.27;;;27.70;50.60;;;;;;5071588;28;20978;-50
2022/08/12 12:55:21;;;;;;;2.53;2.33;;;27.70;50.50;;;;;;5071127;28;21088;-51
2022/08/12 12:57:49;;;;;;;2.50;2.27;;;27.70;50.50;;;;;;5071204;28;20494;-52
2022/08/12 13:00:17;;;;;;;2.10;2.00;;;27.70;50.50;;;;;;5071298;28;20489;-52
2022/08/12 13:02:51;;;;;;;2.60;2.23;;;27.70;50.30;;;;;;5071408;28;20589;-54
2022/08/12 13:05:19;;;;;;;2.50;2.40;;;27.70;50.30;;;;;;5071527;28;20463;-52
2022/08/12 13:07:48;;;;;;;3.37;2.53;;;27.70;50.30;;;;;;5071359;28;20883;-52
2022/08/12 13:10:15;;;;;;;2.77;2.67;;;27.70;50.00;;;;;;5071022;28;20475;-52
2022/08/12 13:12:42;;;;;;;2.47;2.37;;;27.70;50.50;;;;;;5071223;28;20458;-49
2022/08/12 13:15:14;;;;;;;2.13;1.93;;;27.70;49.80;;;;;;5071022;28;20570;-51
2022/08/12 13:17:42;;;;;;;2.00;1.93;;;27.70;49.70;;;;;;5071398;28;20488;-55
2022/08/12 13:20:12;;;;;;;1.73;1.70;;;27.80;50.00;;;;;;5071229;28;20534;-49
2022/08/12 13:22:38;;;;;;;2.30;2.20;;;27.70;50.00;;;;;;5070999;28;20447;-50
2022/08/12 13:25:08;;;;;;;2.30;2.10;;;27.80;50.00;;;;;;5070948;28;20467;-52
2022/08/12 13:27:40;;;;;;;2.30;2.20;;;27.80;50.00;;;;;;5070976;28;20483;-52
2022/08/12 13:30:11;;;;;;;1.73;1.73;;;27.80;49.80;;;;;;5070723;28;20810;-51
2022/08/12 13:32:38;;;;;;;2.07;1.90;;;27.80;49.80;;;;;;5071140;28;20534;-53
2022/08/12 13:35:06;;;;;;;1.93;1.83;;;27.80;49.90;;;;;;5070740;28;20566;-50
2022/08/12 13:37:34;;;;;;;1.70;1.70;;;27.80;49.50;;;;;;5070963;28;20526;-49
2022/08/12 13:40:01;;;;;;;6.93;2.00;;;27.80;49.60;;;;;;5070727;28;20522;-52
2022/08/12 13:42:29;;;;;;;2.47;2.27;;;27.90;49.70;;;;;;5070846;28;20443;-51
2022/08/12 13:44:56;;;;;;;2.17;2.07;;;27.90;49.80;;;;;;5070866;28;20470;-52
2022/08/12 13:47:23;;;;;;;2.50;2.40;;;27.90;49.90;;;;;;5070886;28;20454;-49
2022/08/12 13:49:51;;;;;;;1.70;1.60;;;27.90;50.40;;;;;;5070580;28;20461;-55
2022/08/12 13:52:18;;;;;;;1.67;1.60;;;27.90;49.70;;;;;;5071457;28;20482;-49
2022/08/12 13:54:47;;;;;;;1.40;1.40;;;27.90;49.40;;;;;;5074160;28;20521;-51
2022/08/12 13:57:17;;;;;;;1.83;1.73;;;27.90;49.30;;;;;;5074300;28;20457;-49
2022/08/12 13:59:45;;;;;;;2.00;1.90;;;28.00;49.50;;;;;;5074054;28;20452;-51
2022/08/12 14:02:12;;;;;;;2.17;2.07;;;28.00;49.60;;;;;;5074328;28;20471;-50
2022/08/12 14:04:40;;;;;;;2.13;2.00;;;28.00;49.40;;;;;;5074141;28;20562;-51
2022/08/12 14:07:08;;;;;;;1.90;1.83;;;28.00;49.20;;;;;;5074077;28;20837;-51
2022/08/12 14:10:35;;;;;;;2.83;2.73;;;28.00;48.90;;;;;;5073819;28;20533;-49
2022/08/12 14:12:22;;;;;;;1.93;1.83;;;28.00;49.20;;;;;;5073814;28;20442;-51
2022/08/12 14:14:50;;;;;;;1.90;1.80;;;28.00;49.20;;;;;;5073727;28;20463;-50
2022/08/12 14:17:18;;;;;;;1.93;1.83;;;28.00;49.30;;;;;;5074025;28;20529;-48
2022/08/12 14:22:32;;;;;;;2.03;1.93;;;28.10;49.00;;;;;;5074039;28;20925;-51
2022/08/12 14:25:00;;;;;;;1.70;1.67;;;28.10;48.90;;;;;;5073797;28;20558;-50
2022/08/12 14:27:27;;;;;;;1.97;1.87;;;28.10;49.10;;;;;;5073668;28;20443;-52
2022/08/12 14:29:56;;;;;;;1.80;1.70;;;28.10;49.10;;;;;;5073412;28;20934;-55
2022/08/12 14:32:23;;;;;;;2.37;2.10;;;28.10;48.90;;;;;;5073754;28;20534;-48
2022/08/12 14:34:51;;;;;;;1.80;1.77;;;28.20;49.00;;;;;;5073465;28;20487;-51
2022/08/12 14:37:19;;;;;;;1.73;1.63;;;28.20;49.00;;;;;;5073552;28;20534;-49
2022/08/12 14:39:45;;;;;;;1.87;1.83;;;28.20;49.00;;;;;;5073488;28;20483;-52
2022/08/12 14:42:12;;;;;;;1.83;1.80;;;28.20;49.10;;;;;;5073415;28;20487;-49